createdAt,value
2018-06-14T00:00:53.194Z,9.90
2018-06-14T00:03:21.549Z,9.80
2018-06-14T00:05:49.760Z,9.80
2018-06-14T00:08:18.002Z,9.80
2018-06-14T00:10:46.441Z,9.80
2018-06-14T00:15:42.893Z,9.80
2018-06-14T00:20:39.123Z,9.70
2018-06-14T00:23:07.373Z,9.60
2018-06-14T00:25:35.609Z,9.70
2018-06-14T00:35:28.046Z,9.70
2018-06-14T00:37:56.247Z,9.60
2018-06-14T00:40:24.885Z,9.70
2018-06-14T00:45:21.529Z,9.60
2018-06-14T00:47:49.751Z,9.60
2018-06-14T00:50:18.204Z,9.50
2018-06-14T00:55:14.731Z,9.70
2018-06-14T00:57:42.986Z,9.70
2018-06-14T01:00:11.362Z,9.70
2018-06-14T01:05:07.837Z,9.60
2018-06-14T01:07:36.165Z,9.50
2018-06-14T01:15:00.318Z,9.40
2018-06-14T01:17:28.578Z,9.40
2018-06-14T01:19:56.898Z,9.30
2018-06-14T01:27:21.124Z,9.20
2018-06-14T01:29:49.260Z,9.20
2018-06-14T01:32:17.473Z,9.10
2018-06-14T01:42:09.819Z,9.10
2018-06-14T01:44:38.249Z,9.00
2018-06-14T01:57:00.427Z,9.30
2018-06-14T01:59:28.918Z,9.50
2018-06-14T02:01:57.493Z,9.60
2018-06-14T02:09:22.422Z,9.50
2018-06-14T02:11:50.652Z,9.50
2018-06-14T02:19:38.410Z,9.30
2018-06-14T02:22:11.041Z,9.20
2018-06-14T02:24:45.590Z,9.10
2018-06-14T02:27:14.234Z,9.00
2018-06-14T02:34:45.124Z,9.00
2018-06-14T02:37:13.378Z,9.00
2018-06-14T02:42:10.211Z,9.10
2018-06-14T02:47:07.429Z,9.20
2018-06-14T02:49:35.649Z,9.30
2018-06-14T02:57:00.641Z,9.40
2018-06-14T02:59:28.860Z,9.40
2018-06-14T03:06:53.180Z,9.40
2018-06-14T03:09:22.329Z,9.40
2018-06-14T03:14:19.347Z,9.30
2018-06-14T03:16:47.573Z,9.30
2018-06-14T03:21:44.101Z,9.30
2018-06-14T03:24:12.302Z,9.30
2018-06-14T03:26:40.813Z,9.20
2018-06-14T03:31:36.908Z,9.20
2018-06-14T03:34:05.326Z,9.30
2018-06-14T03:36:33.995Z,9.20
2018-06-14T03:43:58.784Z,9.10
2018-06-14T03:46:27.006Z,9.10
2018-06-14T03:58:47.437Z,9.30
2018-06-14T04:01:15.701Z,9.30
2018-06-14T04:03:43.980Z,9.30
2018-06-14T04:06:22.470Z,9.40
2018-06-14T04:08:51.096Z,9.50
2018-06-14T04:11:19.446Z,9.40
2018-06-14T04:23:40.603Z,10.00
2018-06-14T04:26:09.064Z,10.00
2018-06-14T04:36:02.296Z,10.30
2018-06-14T04:38:30.809Z,10.30
2018-06-14T04:53:19.280Z,10.70
2018-06-14T05:00:47.893Z,10.90
2018-06-14T05:03:16.371Z,11.00
2018-06-14T05:10:45.989Z,11.30
2018-06-14T05:13:14.421Z,11.20
2018-06-14T05:15:43.404Z,11.30
2018-06-14T05:18:11.685Z,11.40
2018-06-14T05:20:39.879Z,11.50
2018-06-14T05:23:08.168Z,11.60
2018-06-14T05:25:36.329Z,11.70
2018-06-14T05:28:04.895Z,11.70
2018-06-14T05:30:33.128Z,11.70
2018-06-14T05:33:01.884Z,11.70
2018-06-14T05:35:30.293Z,11.80
2018-06-14T05:37:59.251Z,11.70
2018-06-14T05:42:55.514Z,11.70
2018-06-14T05:45:23.920Z,11.80
2018-06-14T05:47:52.593Z,11.90
2018-06-14T05:50:20.970Z,12.00
2018-06-14T05:52:49.191Z,12.10
2018-06-14T05:55:18.479Z,12.20
2018-06-14T05:57:46.893Z,12.40
2018-06-14T06:00:18.029Z,12.50
2018-06-14T06:02:48.665Z,12.70
2018-06-14T06:05:18.412Z,12.90
2018-06-14T06:07:46.736Z,12.90
2018-06-14T06:10:15.048Z,13.10
2018-06-14T06:12:43.384Z,13.30
2018-06-14T06:17:39.536Z,13.70
2018-06-14T06:20:14.814Z,13.80
2018-06-14T06:22:43.125Z,13.80
2018-06-14T06:25:11.347Z,14.00
2018-06-14T06:30:08.982Z,14.30
2018-06-14T06:32:37.865Z,14.40
2018-06-14T06:35:06.078Z,14.60
2018-06-14T06:37:34.258Z,14.90
2018-06-14T06:40:02.428Z,14.90
2018-06-14T06:42:30.656Z,14.80
2018-06-14T06:44:59.048Z,15.00
2018-06-14T06:49:56.123Z,15.60
2018-06-14T06:54:52.801Z,15.40
2018-06-14T06:57:21.222Z,15.60
2018-06-14T06:59:49.669Z,15.80
2018-06-14T07:02:17.864Z,16.10
2018-06-14T07:04:46.293Z,16.30
2018-06-14T07:07:14.486Z,16.40
2018-06-14T07:12:10.860Z,16.50
2018-06-14T07:14:39.025Z,16.50
2018-06-14T07:19:35.173Z,17.10
2018-06-14T07:22:03.403Z,16.70
2018-06-14T07:24:31.635Z,17.30
2018-06-14T07:26:59.801Z,17.30
2018-06-14T07:29:27.983Z,17.70
2018-06-14T07:31:56.184Z,17.50
2018-06-14T07:34:24.356Z,17.80
2018-06-14T07:36:52.808Z,18.10
2018-06-14T07:41:49.660Z,17.50
2018-06-14T07:44:17.842Z,17.90
2018-06-14T07:46:46.409Z,18.10
2018-06-14T07:49:14.817Z,18.00
2018-06-14T07:51:43.015Z,18.30
2018-06-14T07:54:11.544Z,18.90
2018-06-14T07:56:39.881Z,19.40
2018-06-14T07:59:08.301Z,19.90
2018-06-14T08:01:36.484Z,19.40
2018-06-14T08:04:04.698Z,19.60
2018-06-14T08:06:32.985Z,20.00
2018-06-14T08:09:01.153Z,19.50
2018-06-14T08:11:29.579Z,20.00
2018-06-14T08:13:57.796Z,20.20
2018-06-14T08:16:26.016Z,20.10
2018-06-14T08:18:54.268Z,20.80
2018-06-14T08:21:23.198Z,21.30
2018-06-14T08:31:15.529Z,21.00
2018-06-14T08:36:11.704Z,20.90
2018-06-14T08:38:40.162Z,21.80
2018-06-14T08:43:36.361Z,20.90
2018-06-14T08:46:04.591Z,20.50
2018-06-14T08:51:01.136Z,20.50
2018-06-14T08:53:29.556Z,20.00
2018-06-14T08:55:57.752Z,19.80
2018-06-14T09:00:53.921Z,20.60
2018-06-14T09:03:22.278Z,20.90
2018-06-14T09:05:50.480Z,20.90
2018-06-14T09:08:18.749Z,20.80
2018-06-14T09:10:46.940Z,21.10
2018-06-14T09:13:15.091Z,21.80
2018-06-14T09:15:43.307Z,21.80
2018-06-14T09:18:11.568Z,21.90
2018-06-14T09:20:39.739Z,22.10
2018-06-14T09:23:08.414Z,22.90
2018-06-14T09:25:36.701Z,23.00
2018-06-14T09:28:04.957Z,22.10
2018-06-14T09:30:33.189Z,22.40
2018-06-14T09:33:01.595Z,23.40
2018-06-14T09:35:30.665Z,23.10
2018-06-14T09:37:59.103Z,23.80
2018-06-14T09:40:27.388Z,24.20
2018-06-14T09:45:23.841Z,23.80
2018-06-14T09:50:20.069Z,22.20
2018-06-14T09:52:48.336Z,21.20
2018-06-14T09:55:16.947Z,20.70
2018-06-14T09:57:45.118Z,20.50
2018-06-14T10:02:41.998Z,21.00
2018-06-14T10:05:10.966Z,21.40
2018-06-14T10:07:39.180Z,22.30
2018-06-14T10:10:07.664Z,21.90
2018-06-14T10:15:05.162Z,21.30
2018-06-14T10:17:33.316Z,21.30
2018-06-14T10:20:01.472Z,23.00
2018-06-14T10:22:30.028Z,23.30
2018-06-14T10:24:58.242Z,22.60
2018-06-14T10:27:26.755Z,22.30
2018-06-14T10:29:54.955Z,21.80
2018-06-14T10:32:23.138Z,21.70
2018-06-14T10:34:51.400Z,21.30
2018-06-14T10:37:19.715Z,21.50
2018-06-14T10:39:48.026Z,21.50
2018-06-14T10:42:16.243Z,22.20
2018-06-14T10:44:44.407Z,22.60
2018-06-14T10:49:40.941Z,22.40
2018-06-14T10:52:09.157Z,21.60
2018-06-14T10:54:37.361Z,22.10
2018-06-14T10:57:05.508Z,24.00
2018-06-14T10:59:33.719Z,22.80
2018-06-14T11:02:01.950Z,22.50
2018-06-14T11:04:30.165Z,22.20
2018-06-14T11:09:26.318Z,24.10
2018-06-14T11:11:54.508Z,23.10
2018-06-14T11:19:18.720Z,24.30
2018-06-14T11:21:47.060Z,23.90
2018-06-14T11:24:15.251Z,24.00
2018-06-14T11:26:43.548Z,24.50
2018-06-14T11:31:39.665Z,23.20
2018-06-14T11:36:37.300Z,22.90
2018-06-14T11:39:06.516Z,23.80
2018-06-14T11:41:34.961Z,24.40
2018-06-14T11:46:31.062Z,23.40
2018-06-14T11:48:59.240Z,23.70
2018-06-14T11:51:27.425Z,24.10
2018-06-14T11:53:55.604Z,24.60
2018-06-14T11:56:23.773Z,24.30
2018-06-14T11:58:52.752Z,23.40
2018-06-14T12:01:20.976Z,23.60
2018-06-14T12:06:17.152Z,24.70
2018-06-14T12:08:45.384Z,25.80
2018-06-14T12:11:13.980Z,25.40
2018-06-14T12:13:42.578Z,25.80
2018-06-14T12:16:10.969Z,24.40
2018-06-14T12:18:39.733Z,24.70
2018-06-14T12:21:07.936Z,24.90
2018-06-14T12:23:36.094Z,24.80
2018-06-14T12:28:32.252Z,24.80
2018-06-14T12:31:00.384Z,25.30
2018-06-14T12:33:28.589Z,24.60
2018-06-14T12:40:52.656Z,24.60
2018-06-14T12:43:20.853Z,24.90
2018-06-14T12:45:49.237Z,24.40
2018-06-14T12:50:45.355Z,23.40
2018-06-14T12:53:13.631Z,23.70
2018-06-14T12:58:10.136Z,23.60
2018-06-14T13:00:38.370Z,23.90
2018-06-14T13:05:34.505Z,23.90
2018-06-14T13:08:02.680Z,23.50
2018-06-14T13:10:30.835Z,23.90
2018-06-14T13:12:59.112Z,23.40
2018-06-14T13:15:27.765Z,23.50
2018-06-14T13:17:56.116Z,23.30
2018-06-14T13:20:24.280Z,23.00
2018-06-14T13:22:52.520Z,23.10
2018-06-14T13:25:20.762Z,23.70
2018-06-14T13:27:48.952Z,23.40
2018-06-14T13:30:17.164Z,23.90
2018-06-14T13:32:45.413Z,23.90
2018-06-14T13:37:42.017Z,24.60
2018-06-14T13:42:38.198Z,24.50
2018-06-14T13:45:06.812Z,24.60
2018-06-14T13:47:35.064Z,25.70
2018-06-14T13:52:31.260Z,25.10
2018-06-14T13:55:00.404Z,25.10
2018-06-14T13:57:28.708Z,25.40
2018-06-14T13:59:56.863Z,24.80
2018-06-14T14:02:25.128Z,25.10
2018-06-14T14:04:53.356Z,24.70
2018-06-14T14:07:26.429Z,25.00
2018-06-14T14:12:22.907Z,25.10
2018-06-14T14:17:18.964Z,24.20
2018-06-14T14:22:15.152Z,24.10
2018-06-14T14:24:43.445Z,23.80
2018-06-14T14:27:11.677Z,23.70
2018-06-14T14:29:39.986Z,24.00
2018-06-14T14:32:08.139Z,24.60
2018-06-14T14:34:36.333Z,24.70
2018-06-14T14:39:32.503Z,24.60
2018-06-14T14:42:00.643Z,24.40
2018-06-14T14:44:28.921Z,24.90
2018-06-14T14:46:57.133Z,24.20
2018-06-14T14:49:25.309Z,23.80
2018-06-14T14:54:21.443Z,23.70
2018-06-14T14:56:50.026Z,23.30
2018-06-14T14:59:18.295Z,23.40
2018-06-14T15:01:46.622Z,23.40
2018-06-14T15:04:14.984Z,23.10
2018-06-14T15:06:43.317Z,23.00
2018-06-14T15:09:11.477Z,22.80
2018-06-14T15:14:07.758Z,22.90
2018-06-14T15:16:35.929Z,22.80
2018-06-14T15:19:04.200Z,22.80
2018-06-14T15:21:32.594Z,23.00
2018-06-14T15:41:17.040Z,22.30
2018-06-14T15:43:45.591Z,22.40
2018-06-14T15:48:42.695Z,21.60
2018-06-14T15:51:11.074Z,21.40
2018-06-14T15:53:39.248Z,21.00
2018-06-14T15:56:23.028Z,21.00
2018-06-14T15:58:51.396Z,20.90
2018-06-14T16:01:19.835Z,20.90
2018-06-14T16:06:16.266Z,20.80
2018-06-14T16:11:13.205Z,20.60
2018-06-14T16:13:41.993Z,20.40
2018-06-14T16:28:30.226Z,18.50
2018-06-14T16:30:58.381Z,18.20
2018-06-14T16:33:26.789Z,18.00
2018-06-14T16:35:56.059Z,17.80
2018-06-14T16:40:52.269Z,17.60
2018-06-14T16:43:20.575Z,17.50
2018-06-14T16:45:49.091Z,17.50
2018-06-14T16:48:17.945Z,17.50
2018-06-14T16:50:48.629Z,17.50
2018-06-14T16:53:16.872Z,17.40
2018-06-14T16:55:49.467Z,17.30
2018-06-14T16:58:17.850Z,17.30
2018-06-14T17:03:19.985Z,17.10
2018-06-14T17:08:16.476Z,16.90
2018-06-14T17:10:45.044Z,16.90
2018-06-14T17:13:13.544Z,17.00
2018-06-14T17:15:41.766Z,16.90
2018-06-14T17:20:38.165Z,16.90
2018-06-14T17:23:06.613Z,16.90
2018-06-14T17:25:36.917Z,16.80
2018-06-14T17:28:05.146Z,16.90
2018-06-14T17:30:33.374Z,16.70
2018-06-14T17:37:58.779Z,16.80
2018-06-14T17:40:27.035Z,16.70
2018-06-14T17:45:24.242Z,16.40
2018-06-14T17:47:53.476Z,16.40
2018-06-14T17:50:21.802Z,16.40
2018-06-14T17:52:50.823Z,16.30
2018-06-14T17:55:19.680Z,16.30
2018-06-14T17:57:48.234Z,16.40
2018-06-14T18:05:13.498Z,16.40
2018-06-14T18:07:41.753Z,16.30
2018-06-14T18:10:10.050Z,16.30
2018-06-14T18:15:06.429Z,16.20
2018-06-14T18:17:41.072Z,16.20
2018-06-14T18:20:09.414Z,16.30
2018-06-14T18:22:37.650Z,16.30
2018-06-14T18:25:06.826Z,16.20
2018-06-14T18:27:38.137Z,16.10
2018-06-14T18:35:03.495Z,16.00
2018-06-14T18:37:31.803Z,15.90
2018-06-14T18:40:00.038Z,16.00
2018-06-14T18:44:56.245Z,16.00
2018-06-14T18:47:24.554Z,16.10
2018-06-14T18:52:20.777Z,16.10
2018-06-14T18:54:51.538Z,16.10
2018-06-14T18:57:20.808Z,16.00
2018-06-14T18:59:49.174Z,16.00
2018-06-14T19:02:17.449Z,16.00
2018-06-14T19:07:14.394Z,16.10
2018-06-14T19:12:10.711Z,16.00
2018-06-14T19:14:39.200Z,16.00
2018-06-14T19:19:35.769Z,16.00
2018-06-14T19:27:00.330Z,16.00
2018-06-14T19:29:28.596Z,15.90
2018-06-14T19:36:52.925Z,16.00
2018-06-14T19:41:49.286Z,16.00
2018-06-14T19:44:18.316Z,16.00
2018-06-14T19:46:47.205Z,16.10
2018-06-14T19:54:11.733Z,16.00
2018-06-14T20:01:36.356Z,16.10
2018-06-14T20:04:04.659Z,16.10
2018-06-14T20:06:33.052Z,16.00
2018-06-14T20:09:01.381Z,16.00
2018-06-14T20:13:58.228Z,16.10
2018-06-14T20:16:26.648Z,15.90
2018-06-14T20:18:55.278Z,15.90
2018-06-14T20:21:23.596Z,15.90
2018-06-14T20:26:20.411Z,15.90
2018-06-14T20:28:48.812Z,15.90
2018-06-14T20:31:17.433Z,16.00
2018-06-14T20:33:45.828Z,15.90
2018-06-14T20:38:42.144Z,16.00
2018-06-14T20:41:10.443Z,16.00
2018-06-14T20:46:07.165Z,15.90
2018-06-14T20:51:03.442Z,15.90
2018-06-14T20:53:31.726Z,15.80
2018-06-14T20:58:28.122Z,15.80
2018-06-14T21:00:56.731Z,15.80
2018-06-14T21:05:53.413Z,15.80
2018-06-14T21:13:17.842Z,15.90
2018-06-14T21:15:46.711Z,15.80
2018-06-14T21:18:15.288Z,15.80
2018-06-14T21:25:40.033Z,15.70
2018-06-14T21:30:37.497Z,15.80
2018-06-14T21:33:06.027Z,15.70
2018-06-14T21:35:34.532Z,15.70
2018-06-14T21:38:02.852Z,15.70
2018-06-14T21:40:31.220Z,15.70
2018-06-14T21:45:27.469Z,15.70
2018-06-14T21:50:23.821Z,15.60
2018-06-14T21:52:52.262Z,15.60
2018-06-14T21:55:20.806Z,15.60
2018-06-14T21:57:49.206Z,15.70
2018-06-14T22:02:51.168Z,15.70
2018-06-14T22:05:19.496Z,15.70
2018-06-14T22:10:15.870Z,15.60
2018-06-14T22:12:44.136Z,15.70
2018-06-14T22:17:41.794Z,15.70
2018-06-14T22:25:06.402Z,15.60
2018-06-14T22:30:03.008Z,15.50
2018-06-14T22:32:31.246Z,15.50
2018-06-14T22:37:33.225Z,15.40
2018-06-14T22:40:01.750Z,15.30
2018-06-14T22:44:59.143Z,15.40
2018-06-14T22:49:55.710Z,15.30
2018-06-14T22:52:58.977Z,15.40
2018-06-14T22:55:27.258Z,15.40
2018-06-14T22:57:55.556Z,15.30
2018-06-14T23:02:57.557Z,15.40
2018-06-14T23:07:54.893Z,15.30
2018-06-14T23:15:33.351Z,15.30
2018-06-14T23:18:02.005Z,15.30
2018-06-14T23:25:29.500Z,15.20
2018-06-14T23:30:26.766Z,15.30
2018-06-14T23:35:23.652Z,15.40
2018-06-14T23:37:52.274Z,15.30
2018-06-14T23:40:20.731Z,15.40
2018-06-14T23:42:49.117Z,15.40
2018-06-14T23:45:17.422Z,15.30
2018-06-14T23:47:45.684Z,15.30
2018-06-14T23:50:14.322Z,15.40
2018-06-14T23:52:42.832Z,15.30
2018-06-14T23:55:11.632Z,15.30
2018-06-14T23:57:40.204Z,15.30
